createdAt,value
2016-10-20T00:00:53.418Z,0
2016-10-20T00:02:05.973Z,0
2016-10-20T00:03:18.448Z,0
2016-10-20T00:04:31.432Z,0
2016-10-20T00:05:44.463Z,0
2016-10-20T00:06:58.057Z,0
2016-10-20T00:08:11.020Z,0
2016-10-20T00:09:24.545Z,0
2016-10-20T00:10:36.561Z,0
2016-10-20T00:11:49.040Z,0
2016-10-20T00:13:02.048Z,0
2016-10-20T00:14:14.588Z,0
2016-10-20T00:15:28.085Z,0
2016-10-20T00:16:41.234Z,0
2016-10-20T00:17:53.676Z,0
2016-10-20T00:19:05.054Z,0
2016-10-20T00:20:18.062Z,0
2016-10-20T00:21:30.544Z,0
2016-10-20T00:22:43.080Z,0
2016-10-20T00:23:54.917Z,0
2016-10-20T00:25:06.923Z,0
2016-10-20T00:26:18.894Z,0
2016-10-20T00:27:31.396Z,0
2016-10-20T00:28:44.383Z,0
2016-10-20T00:29:57.318Z,0
2016-10-20T00:31:09.747Z,0
2016-10-20T00:32:21.657Z,0
2016-10-20T00:33:34.790Z,0
2016-10-20T00:34:47.259Z,0
2016-10-20T00:36:00.242Z,0
2016-10-20T00:37:12.702Z,0
2016-10-20T00:38:25.734Z,0
2016-10-20T00:39:39.256Z,0
2016-10-20T00:40:52.759Z,0
2016-10-20T00:42:04.732Z,0
2016-10-20T00:43:17.165Z,0
2016-10-20T00:44:29.231Z,0
2016-10-20T00:45:41.742Z,0
2016-10-20T00:46:53.675Z,0
2016-10-20T00:48:07.210Z,0
2016-10-20T00:49:20.275Z,0
2016-10-20T00:50:33.263Z,0
2016-10-20T00:51:46.282Z,0
2016-10-20T00:52:58.674Z,0
2016-10-20T00:54:11.674Z,0
2016-10-20T00:55:24.835Z,0
2016-10-20T00:56:37.255Z,0
2016-10-20T00:57:49.160Z,0
2016-10-20T00:59:00.526Z,0
2016-10-20T01:00:13.534Z,0
2016-10-20T01:01:27.065Z,0
2016-10-20T01:02:39.477Z,0
2016-10-20T01:03:52.436Z,0
2016-10-20T01:05:05.321Z,0
2016-10-20T01:06:17.764Z,0
2016-10-20T01:07:29.645Z,0
2016-10-20T01:08:42.082Z,0
2016-10-20T01:09:54.534Z,0
2016-10-20T01:11:07.444Z,0
2016-10-20T01:12:19.293Z,0
2016-10-20T01:13:32.767Z,0
2016-10-20T01:14:45.110Z,0
2016-10-20T01:15:58.038Z,0
2016-10-20T01:17:09.524Z,0
2016-10-20T01:18:23.099Z,0
2016-10-20T01:19:34.991Z,0
2016-10-20T01:20:48.498Z,0
2016-10-20T01:22:01.905Z,0
2016-10-20T01:23:14.290Z,0
2016-10-20T01:24:26.721Z,0
2016-10-20T01:25:39.266Z,0
2016-10-20T01:26:52.759Z,0
2016-10-20T01:28:05.892Z,0
2016-10-20T01:29:18.988Z,0
2016-10-20T01:30:31.442Z,0
2016-10-20T01:31:43.359Z,0
2016-10-20T01:32:56.471Z,0
2016-10-20T01:34:08.157Z,0
2016-10-20T01:35:20.195Z,0
2016-10-20T01:36:33.199Z,0
2016-10-20T01:37:45.560Z,0
2016-10-20T01:38:57.565Z,0
2016-10-20T01:40:10.520Z,0
2016-10-20T01:41:22.907Z,0
2016-10-20T01:42:35.316Z,0
2016-10-20T01:43:47.810Z,0
2016-10-20T01:45:00.725Z,0
2016-10-20T01:46:12.073Z,0
2016-10-20T01:47:24.774Z,0
2016-10-20T01:48:37.207Z,0
2016-10-20T01:49:48.738Z,0
2016-10-20T01:51:01.677Z,0
2016-10-20T01:52:14.649Z,0
2016-10-20T01:53:27.499Z,0
2016-10-20T01:54:40.901Z,0
2016-10-20T01:55:53.270Z,0
2016-10-20T01:57:06.226Z,0
2016-10-20T01:58:19.179Z,0
2016-10-20T01:59:31.609Z,0
2016-10-20T02:00:44.706Z,0
2016-10-20T02:01:57.629Z,0
2016-10-20T02:03:08.994Z,0
2016-10-20T02:04:21.379Z,0
2016-10-20T02:05:33.920Z,0
2016-10-20T02:06:46.361Z,0
2016-10-20T02:07:58.762Z,0
2016-10-20T02:09:11.186Z,0
2016-10-20T02:10:23.055Z,0
2016-10-20T02:11:34.620Z,0
2016-10-20T02:12:47.537Z,0
2016-10-20T02:13:59.419Z,0
2016-10-20T02:15:12.681Z,0
2016-10-20T02:16:26.180Z,0
2016-10-20T02:17:38.588Z,0
2016-10-20T02:18:49.914Z,0
2016-10-20T02:20:01.860Z,0
2016-10-20T02:21:15.289Z,0
2016-10-20T02:22:28.325Z,0
2016-10-20T02:23:41.211Z,0
2016-10-20T02:24:53.587Z,0
2016-10-20T02:26:07.079Z,0
2016-10-20T02:27:19.603Z,0
2016-10-20T02:28:32.515Z,0
2016-10-20T02:29:44.381Z,0
2016-10-20T02:30:56.787Z,0
2016-10-20T02:32:10.182Z,0
2016-10-20T02:33:23.275Z,0
2016-10-20T02:34:36.720Z,0
2016-10-20T02:35:49.092Z,0
2016-10-20T02:37:00.987Z,0
2016-10-20T02:38:12.370Z,0
2016-10-20T02:39:24.229Z,0
2016-10-20T02:40:37.159Z,0
2016-10-20T02:41:50.072Z,0
2016-10-20T02:43:03.451Z,0
2016-10-20T02:44:16.044Z,0
2016-10-20T02:45:28.955Z,0
2016-10-20T02:46:41.903Z,0
2016-10-20T02:47:54.812Z,0
2016-10-20T02:49:06.858Z,0
2016-10-20T02:50:20.296Z,0
2016-10-20T02:51:32.717Z,0
2016-10-20T02:52:45.624Z,0
2016-10-20T02:53:59.152Z,0
2016-10-20T02:55:11.834Z,0
2016-10-20T02:56:24.261Z,0
2016-10-20T02:57:36.645Z,0
2016-10-20T02:58:47.980Z,0
2016-10-20T03:00:01.032Z,0
2016-10-20T03:01:14.033Z,0
2016-10-20T03:02:27.118Z,0
2016-10-20T03:03:39.530Z,0
2016-10-20T03:04:51.962Z,0
2016-10-20T03:06:05.208Z,0
2016-10-20T03:07:17.592Z,0
2016-10-20T03:08:31.069Z,0
2016-10-20T03:09:42.893Z,0
2016-10-20T03:10:54.955Z,0
2016-10-20T03:12:07.382Z,0
2016-10-20T03:13:20.838Z,0
2016-10-20T03:14:33.809Z,0
2016-10-20T03:15:46.855Z,0
2016-10-20T03:16:59.433Z,0
2016-10-20T03:18:11.256Z,0
2016-10-20T03:19:22.605Z,0
2016-10-20T03:20:35.635Z,0
2016-10-20T03:21:48.837Z,0
2016-10-20T03:23:01.369Z,0
2016-10-20T03:24:13.956Z,0
2016-10-20T03:25:26.479Z,0
2016-10-20T03:26:39.447Z,0
2016-10-20T03:27:51.499Z,0
2016-10-20T03:29:04.431Z,0
2016-10-20T03:30:16.806Z,0
2016-10-20T03:31:30.330Z,0
2016-10-20T03:32:42.355Z,0
2016-10-20T03:33:54.777Z,0
2016-10-20T03:35:07.718Z,0
2016-10-20T03:36:20.074Z,0
2016-10-20T03:37:32.493Z,0
2016-10-20T03:38:44.437Z,0
2016-10-20T03:39:56.311Z,0
2016-10-20T03:41:08.235Z,0
2016-10-20T03:42:20.716Z,0
2016-10-20T03:43:33.107Z,0
2016-10-20T03:44:45.674Z,0
2016-10-20T03:45:58.141Z,0
2016-10-20T03:47:10.291Z,0
2016-10-20T03:48:23.283Z,0
2016-10-20T03:49:36.273Z,0
2016-10-20T03:50:49.921Z,0
2016-10-20T03:52:01.835Z,0
2016-10-20T03:53:13.380Z,0
2016-10-20T03:54:24.754Z,0
2016-10-20T03:55:37.147Z,0
2016-10-20T03:56:50.098Z,0
2016-10-20T03:58:02.567Z,0
2016-10-20T03:59:14.488Z,0
2016-10-20T04:00:26.558Z,0
2016-10-20T04:01:40.088Z,0
2016-10-20T04:02:52.601Z,0
2016-10-20T04:04:05.059Z,0
2016-10-20T04:05:16.768Z,0
2016-10-20T04:06:29.719Z,0
2016-10-20T04:07:43.318Z,0
2016-10-20T04:08:56.232Z,0
2016-10-20T04:10:08.672Z,0
2016-10-20T04:11:21.660Z,0
2016-10-20T04:12:34.051Z,0
2016-10-20T04:13:46.697Z,0
2016-10-20T04:14:59.628Z,0
2016-10-20T04:16:12.788Z,0
2016-10-20T04:17:25.731Z,0
2016-10-20T04:18:38.264Z,0
2016-10-20T04:19:51.166Z,0
2016-10-20T04:21:04.856Z,0
2016-10-20T04:22:18.064Z,0
2016-10-20T04:23:30.475Z,0
2016-10-20T04:24:43.437Z,0
2016-10-20T04:25:55.971Z,0
2016-10-20T04:27:09.548Z,0
2016-10-20T04:28:21.624Z,0
2016-10-20T04:29:34.633Z,0
2016-10-20T04:30:46.528Z,0
2016-10-20T04:32:00.184Z,0
2016-10-20T04:33:13.816Z,0
2016-10-20T04:34:26.836Z,0
2016-10-20T04:35:39.441Z,0
2016-10-20T04:36:51.829Z,0
2016-10-20T04:38:05.251Z,0
2016-10-20T04:39:17.106Z,0
2016-10-20T04:40:30.087Z,0
2016-10-20T04:41:43.031Z,0
2016-10-20T04:42:55.587Z,0
2016-10-20T04:44:08.714Z,0
2016-10-20T04:45:21.150Z,0
2016-10-20T04:46:32.511Z,0
2016-10-20T04:47:44.385Z,0
2016-10-20T04:48:57.013Z,0
2016-10-20T04:50:09.604Z,0
2016-10-20T04:51:22.550Z,0
2016-10-20T04:52:34.976Z,0
2016-10-20T04:53:47.837Z,0
2016-10-20T04:55:00.853Z,0
2016-10-20T04:56:13.295Z,0
2016-10-20T04:57:25.733Z,0
2016-10-20T04:58:38.737Z,0
2016-10-20T04:59:50.634Z,0
2016-10-20T05:01:02.510Z,0
2016-10-20T05:02:14.901Z,0
2016-10-20T05:03:28.065Z,0
2016-10-20T05:04:39.991Z,0
2016-10-20T05:05:53.076Z,0
2016-10-20T05:07:05.500Z,0
2016-10-20T05:08:17.366Z,0
2016-10-20T05:09:29.310Z,0
2016-10-20T05:10:41.853Z,0
2016-10-20T05:11:54.287Z,0
2016-10-20T05:13:07.212Z,0
2016-10-20T05:14:19.113Z,0
2016-10-20T05:15:32.072Z,0
2016-10-20T05:16:44.630Z,0
2016-10-20T05:17:57.564Z,0
2016-10-20T05:19:09.927Z,0
2016-10-20T05:20:23.131Z,0
2016-10-20T05:21:35.013Z,0
2016-10-20T05:22:47.953Z,0
2016-10-20T05:24:00.405Z,0
2016-10-20T05:25:13.361Z,0
2016-10-20T05:26:25.264Z,0
2016-10-20T05:27:38.837Z,0
2016-10-20T05:28:51.252Z,0
2016-10-20T05:30:03.714Z,0
2016-10-20T05:31:16.669Z,0
2016-10-20T05:32:29.782Z,0
2016-10-20T05:33:43.327Z,0
2016-10-20T05:34:56.221Z,0
2016-10-20T05:36:09.212Z,0
2016-10-20T05:37:21.635Z,0
2016-10-20T05:38:34.385Z,0
2016-10-20T05:39:46.339Z,0
2016-10-20T05:40:58.727Z,0
2016-10-20T05:42:10.610Z,0
2016-10-20T05:43:23.217Z,0
2016-10-20T05:44:36.129Z,0
2016-10-20T05:45:48.035Z,0
2016-10-20T05:47:00.435Z,0
2016-10-20T05:48:12.870Z,0
2016-10-20T05:49:26.117Z,0
2016-10-20T05:50:39.187Z,0
2016-10-20T05:51:51.122Z,0
2016-10-20T05:53:03.677Z,0
2016-10-20T05:54:16.609Z,0
2016-10-20T05:55:30.307Z,0
2016-10-20T05:56:43.734Z,0
2016-10-20T05:57:56.131Z,0
2016-10-20T05:59:08.016Z,0
2016-10-20T06:00:21.102Z,0
2016-10-20T06:01:34.067Z,0
2016-10-20T06:02:47.046Z,0
2016-10-20T06:03:58.922Z,0
2016-10-20T06:05:11.885Z,0
2016-10-20T06:06:24.832Z,0
2016-10-20T06:07:37.271Z,0
2016-10-20T06:08:49.645Z,0
2016-10-20T06:10:02.101Z,0
2016-10-20T06:11:15.195Z,0
2016-10-20T06:12:28.667Z,0
2016-10-20T06:13:42.234Z,0
2016-10-20T06:14:55.110Z,0
2016-10-20T06:16:08.628Z,0
2016-10-20T06:17:21.715Z,0
2016-10-20T06:18:34.675Z,0
2016-10-20T06:19:47.096Z,0
2016-10-20T06:20:59.545Z,0
2016-10-20T06:22:12.736Z,0
2016-10-20T06:23:25.721Z,0
2016-10-20T06:24:38.655Z,0
2016-10-20T06:25:50.033Z,0
2016-10-20T06:27:01.426Z,0
2016-10-20T06:28:14.726Z,0
2016-10-20T06:29:27.728Z,0
2016-10-20T06:30:40.158Z,0
2016-10-20T06:31:51.024Z,0
2016-10-20T06:33:03.538Z,0
2016-10-20T06:34:15.975Z,0
2016-10-20T06:35:28.510Z,0
2016-10-20T06:36:41.454Z,0
2016-10-20T06:37:54.504Z,0
2016-10-20T06:39:07.447Z,0
2016-10-20T06:40:19.388Z,0
2016-10-20T06:41:32.479Z,0
2016-10-20T06:42:44.911Z,0
2016-10-20T06:43:57.480Z,0
2016-10-20T06:45:10.974Z,0
2016-10-20T06:46:23.459Z,0
2016-10-20T06:47:36.410Z,0
2016-10-20T06:48:48.879Z,0
2016-10-20T06:50:01.234Z,0
2016-10-20T06:51:14.141Z,0
2016-10-20T06:52:27.105Z,0
2016-10-20T06:53:39.043Z,0
2016-10-20T06:54:51.671Z,0
2016-10-20T06:56:03.587Z,0
2016-10-20T06:57:16.190Z,0
2016-10-20T06:58:29.138Z,0
2016-10-20T06:59:41.717Z,0
2016-10-20T07:00:54.646Z,0
2016-10-20T07:02:05.993Z,0
2016-10-20T07:03:18.927Z,0
2016-10-20T07:04:30.399Z,0
2016-10-20T07:05:43.431Z,0
2016-10-20T07:06:56.922Z,0
2016-10-20T07:08:09.374Z,0
2016-10-20T07:09:21.959Z,0
2016-10-20T07:10:35.075Z,0
2016-10-20T07:11:47.435Z,0
2016-10-20T07:12:59.868Z,0
2016-10-20T07:14:12.320Z,0
2016-10-20T07:15:24.815Z,0
2016-10-20T07:16:36.853Z,0
2016-10-20T07:17:48.764Z,0
2016-10-20T07:19:01.826Z,0
2016-10-20T07:20:14.723Z,0
2016-10-20T07:21:27.338Z,0
2016-10-20T07:22:39.241Z,0
2016-10-20T07:23:51.114Z,0
2016-10-20T07:25:04.576Z,0
2016-10-20T07:26:17.560Z,0
2016-10-20T07:27:31.185Z,0
2016-10-20T07:28:44.195Z,0
2016-10-20T07:29:57.166Z,0
2016-10-20T07:31:09.521Z,0
2016-10-20T07:32:22.044Z,0
2016-10-20T07:33:34.370Z,0
2016-10-20T07:34:47.883Z,0
2016-10-20T07:36:00.375Z,0
2016-10-20T07:37:13.963Z,0
2016-10-20T07:38:26.569Z,0
2016-10-20T07:39:39.559Z,0
2016-10-20T07:40:53.027Z,0
2016-10-20T07:42:04.924Z,0
2016-10-20T07:43:17.868Z,0
2016-10-20T07:44:30.912Z,0
2016-10-20T07:45:42.873Z,0
2016-10-20T07:46:55.881Z,0
2016-10-20T07:48:07.878Z,0
2016-10-20T07:49:20.411Z,0
2016-10-20T07:50:32.314Z,0
2016-10-20T07:51:45.321Z,0
2016-10-20T07:52:56.717Z,0
2016-10-20T07:54:09.185Z,0
2016-10-20T07:55:22.655Z,0
2016-10-20T07:56:35.133Z,0
2016-10-20T07:57:47.063Z,0
2016-10-20T07:59:00.544Z,0
2016-10-20T08:00:13.232Z,0
2016-10-20T08:01:25.153Z,0
2016-10-20T08:02:37.584Z,0
2016-10-20T08:03:50.017Z,0
2016-10-20T08:05:01.375Z,0
2016-10-20T08:06:14.434Z,0
2016-10-20T08:07:27.387Z,0
2016-10-20T08:08:40.322Z,0
2016-10-20T08:09:53.378Z,0
2016-10-20T08:11:05.768Z,0
2016-10-20T08:12:19.295Z,0
2016-10-20T08:13:32.355Z,0
2016-10-20T08:14:45.360Z,0
2016-10-20T08:15:58.291Z,0
2016-10-20T08:17:10.973Z,0
2016-10-20T08:18:24.001Z,0
2016-10-20T08:19:36.901Z,0
2016-10-20T08:20:49.330Z,0
2016-10-20T08:22:02.883Z,0
2016-10-20T08:23:15.391Z,0
2016-10-20T08:24:27.765Z,0
2016-10-20T08:25:40.275Z,0
2016-10-20T08:26:52.200Z,0
2016-10-20T08:28:04.217Z,0
2016-10-20T08:29:16.661Z,0
2016-10-20T08:30:28.573Z,0
2016-10-20T08:31:40.528Z,0
2016-10-20T08:32:51.900Z,0
2016-10-20T08:34:04.008Z,0
2016-10-20T08:35:17.450Z,0
2016-10-20T08:36:30.366Z,0
2016-10-20T08:37:43.345Z,0
2016-10-20T08:38:55.458Z,0
2016-10-20T08:40:07.581Z,0
2016-10-20T08:41:18.952Z,0
2016-10-20T08:42:30.267Z,0
2016-10-20T08:43:43.226Z,0
2016-10-20T08:44:54.749Z,0
2016-10-20T08:46:06.680Z,0
2016-10-20T08:47:19.151Z,0
2016-10-20T08:48:31.609Z,0
2016-10-20T08:49:43.988Z,0
2016-10-20T08:50:56.896Z,0
2016-10-20T08:52:08.855Z,0
2016-10-20T08:53:21.889Z,0
2016-10-20T08:54:33.809Z,0
2016-10-20T08:55:47.019Z,0
2016-10-20T08:57:00.449Z,0
2016-10-20T08:58:12.854Z,0
2016-10-20T08:59:24.750Z,0
2016-10-20T09:00:37.865Z,0
2016-10-20T09:01:50.249Z,0
2016-10-20T09:03:02.682Z,0
2016-10-20T09:04:15.645Z,0
2016-10-20T09:05:27.638Z,0
2016-10-20T09:06:39.136Z,0
2016-10-20T09:07:52.680Z,0
2016-10-20T09:09:05.631Z,0
2016-10-20T09:10:18.103Z,0
2016-10-20T09:11:31.077Z,0
2016-10-20T09:12:41.935Z,0
2016-10-20T09:13:54.348Z,0
2016-10-20T09:15:07.314Z,0
2016-10-20T09:16:20.345Z,0
2016-10-20T09:17:33.415Z,0
2016-10-20T09:18:46.346Z,0
2016-10-20T09:19:58.853Z,0
2016-10-20T09:21:11.864Z,0
2016-10-20T09:22:23.531Z,0
2016-10-20T09:23:35.964Z,0
2016-10-20T09:24:49.407Z,0
2016-10-20T09:26:02.883Z,0
2016-10-20T09:27:14.808Z,0
2016-10-20T09:28:27.338Z,0
2016-10-20T09:29:40.236Z,0
2016-10-20T09:30:52.942Z,0
2016-10-20T09:32:05.635Z,0
2016-10-20T09:33:16.594Z,5
2016-10-20T09:34:30.017Z,5
2016-10-20T09:35:42.513Z,5
2016-10-20T09:36:56.025Z,5
2016-10-20T09:38:07.892Z,5
2016-10-20T09:39:20.962Z,5
2016-10-20T09:40:32.300Z,5
2016-10-20T09:41:45.285Z,5
2016-10-20T09:42:57.213Z,10
2016-10-20T09:44:11.027Z,10
2016-10-20T09:45:23.435Z,10
2016-10-20T09:46:36.885Z,10
2016-10-20T09:47:50.005Z,15
2016-10-20T09:49:02.451Z,15
2016-10-20T09:50:15.428Z,15
2016-10-20T09:51:28.126Z,20
2016-10-20T09:53:02.729Z,20
2016-10-20T09:54:37.086Z,20
2016-10-20T09:55:59.785Z,20
2016-10-20T09:57:28.700Z,20
2016-10-20T09:58:59.246Z,20
2016-10-20T10:00:24.520Z,20
2016-10-20T10:01:36.967Z,20
2016-10-20T10:02:48.923Z,20
2016-10-20T10:04:01.280Z,20
2016-10-20T10:05:14.160Z,25
2016-10-20T10:06:27.083Z,25
2016-10-20T10:07:40.911Z,25
2016-10-20T10:08:53.834Z,25
2016-10-20T10:10:06.838Z,25
2016-10-20T10:11:19.858Z,25
2016-10-20T10:12:33.379Z,25
2016-10-20T10:13:46.295Z,25
2016-10-20T10:14:58.682Z,25
2016-10-20T10:16:10.539Z,25
2016-10-20T10:17:23.046Z,25
2016-10-20T10:18:36.101Z,25
2016-10-20T10:19:48.503Z,25
2016-10-20T10:21:01.474Z,25
2016-10-20T10:22:13.960Z,25
2016-10-20T10:23:25.889Z,25
2016-10-20T10:24:38.265Z,25
2016-10-20T10:25:50.751Z,25
2016-10-20T10:27:02.670Z,25
2016-10-20T10:28:15.128Z,25
2016-10-20T10:29:27.618Z,25
2016-10-20T10:30:40.559Z,25
2016-10-20T10:32:11.665Z,30
2016-10-20T10:33:33.101Z,30
2016-10-20T10:34:46.689Z,30
2016-10-20T10:35:59.127Z,35
2016-10-20T10:37:13.577Z,35
2016-10-20T10:38:25.654Z,35
2016-10-20T10:39:38.668Z,40
2016-10-20T10:40:51.629Z,40
2016-10-20T10:42:04.577Z,40
2016-10-20T10:43:17.023Z,45
2016-10-20T10:44:31.868Z,45
2016-10-20T10:45:44.362Z,45
2016-10-20T10:46:56.871Z,50
2016-10-20T10:48:08.752Z,50
2016-10-20T10:49:21.839Z,50
2016-10-20T10:50:33.802Z,50
2016-10-20T10:51:46.205Z,50
2016-10-20T10:52:58.617Z,55
2016-10-20T10:54:11.683Z,55
2016-10-20T10:55:23.803Z,55
2016-10-20T10:56:36.708Z,55
2016-10-20T10:57:49.715Z,55
2016-10-20T10:59:03.272Z,55
2016-10-20T11:00:15.191Z,55
2016-10-20T11:01:28.648Z,55
2016-10-20T11:02:42.337Z,55
2016-10-20T11:03:55.817Z,55
2016-10-20T11:05:09.276Z,55
2016-10-20T11:06:22.318Z,60
2016-10-20T11:07:36.049Z,60
2016-10-20T11:08:49.024Z,60
2016-10-20T11:10:02.596Z,60
2016-10-20T11:11:15.704Z,60
2016-10-20T11:12:27.623Z,60
2016-10-20T11:13:39.593Z,60
2016-10-20T11:14:51.626Z,60
2016-10-20T11:16:04.703Z,60
2016-10-20T11:17:19.391Z,65
2016-10-20T11:18:31.286Z,65
2016-10-20T11:19:43.158Z,65
2016-10-20T11:20:55.044Z,65
2016-10-20T11:22:08.535Z,65
2016-10-20T11:23:20.264Z,65
2016-10-20T11:24:32.717Z,65
2016-10-20T11:25:53.173Z,65
2016-10-20T11:27:24.929Z,70
2016-10-20T11:28:46.361Z,70
2016-10-20T11:29:58.860Z,70
2016-10-20T11:31:12.784Z,70
2016-10-20T11:32:26.024Z,70
2016-10-20T11:33:39.542Z,70
2016-10-20T11:34:52.508Z,70
2016-10-20T11:36:04.984Z,70
2016-10-20T11:37:18.536Z,70
2016-10-20T11:38:31.051Z,75
2016-10-20T11:39:43.528Z,75
2016-10-20T11:40:57.037Z,75
2016-10-20T11:42:09.725Z,75
2016-10-20T11:43:22.850Z,75
2016-10-20T11:44:36.011Z,75
2016-10-20T11:45:49.526Z,75
2016-10-20T11:47:02.474Z,75
2016-10-20T11:48:14.388Z,75
2016-10-20T11:49:25.757Z,75
2016-10-20T11:50:37.682Z,80
2016-10-20T11:51:50.133Z,80
2016-10-20T11:53:03.104Z,80
2016-10-20T11:54:16.258Z,80
2016-10-20T11:55:28.691Z,80
2016-10-20T11:56:41.654Z,80
2016-10-20T11:57:54.113Z,80
2016-10-20T11:59:06.671Z,80
2016-10-20T12:00:19.577Z,80
2016-10-20T12:01:32.039Z,80
2016-10-20T12:02:45.082Z,80
2016-10-20T12:03:58.145Z,80
2016-10-20T12:05:10.791Z,85
2016-10-20T12:06:23.743Z,85
2016-10-20T12:07:36.818Z,85
2016-10-20T12:08:49.822Z,85
2016-10-20T12:10:03.258Z,85
2016-10-20T12:11:15.740Z,85
2016-10-20T12:12:27.774Z,85
2016-10-20T12:13:40.862Z,85
2016-10-20T12:14:53.820Z,90
2016-10-20T12:16:06.962Z,90
2016-10-20T12:17:18.886Z,90
2016-10-20T12:18:31.304Z,90
2016-10-20T12:19:43.800Z,85
2016-10-20T12:20:57.460Z,85
2016-10-20T12:22:10.756Z,85
2016-10-20T12:23:22.700Z,85
2016-10-20T12:24:34.667Z,90
2016-10-20T12:25:47.606Z,90
2016-10-20T12:27:02.709Z,90
2016-10-20T12:28:15.232Z,90
2016-10-20T12:29:28.754Z,90
2016-10-20T12:30:41.273Z,90
2016-10-20T12:31:54.332Z,90
2016-10-20T12:33:06.772Z,95
2016-10-20T12:34:19.834Z,95
2016-10-20T12:35:32.846Z,95
2016-10-20T12:36:48.687Z,95
2016-10-20T12:38:05.162Z,95
2016-10-20T12:39:23.823Z,100
2016-10-20T12:40:38.623Z,100
2016-10-20T12:41:51.294Z,100
2016-10-20T12:43:05.227Z,100
2016-10-20T12:44:17.669Z,100
2016-10-20T12:45:30.143Z,105
2016-10-20T12:46:42.613Z,105
2016-10-20T12:47:55.718Z,105
2016-10-20T12:49:08.597Z,105
2016-10-20T12:50:21.038Z,110
2016-10-20T12:51:32.915Z,110
2016-10-20T12:52:45.891Z,110
2016-10-20T12:53:59.192Z,110
2016-10-20T12:55:11.649Z,110
2016-10-20T12:56:24.527Z,115
2016-10-20T12:57:37.265Z,115
2016-10-20T12:58:50.351Z,115
2016-10-20T13:00:03.949Z,115
2016-10-20T13:01:16.953Z,115
2016-10-20T13:03:04.100Z,120
2016-10-20T13:04:28.273Z,120
2016-10-20T13:05:42.977Z,120
2016-10-20T13:06:56.024Z,120
2016-10-20T13:08:11.183Z,125
2016-10-20T13:09:23.516Z,125
2016-10-20T13:10:36.586Z,125
2016-10-20T13:11:51.049Z,125
2016-10-20T13:13:05.870Z,125
2016-10-20T13:14:18.456Z,125
2016-10-20T13:15:31.774Z,125
2016-10-20T13:16:43.839Z,130
2016-10-20T13:17:57.102Z,125
2016-10-20T13:19:11.271Z,130
2016-10-20T13:20:28.578Z,130
2016-10-20T13:21:41.351Z,130
2016-10-20T13:22:54.679Z,130
2016-10-20T13:24:06.681Z,130
2016-10-20T13:25:20.148Z,130
2016-10-20T13:26:33.086Z,135
2016-10-20T13:27:45.533Z,135
2016-10-20T13:28:59.084Z,135
2016-10-20T13:30:12.132Z,135
2016-10-20T13:31:24.705Z,135
2016-10-20T13:32:37.707Z,135
2016-10-20T13:33:50.748Z,140
2016-10-20T13:35:03.706Z,140
2016-10-20T13:36:17.309Z,140
2016-10-20T13:37:30.421Z,140
2016-10-20T13:38:43.394Z,140
2016-10-20T13:39:55.814Z,140
2016-10-20T13:41:09.052Z,140
2016-10-20T13:42:22.765Z,140
2016-10-20T13:43:35.750Z,145
2016-10-20T13:44:48.760Z,145
2016-10-20T13:46:01.223Z,145
2016-10-20T13:47:13.839Z,145
2016-10-20T13:48:25.777Z,145
2016-10-20T13:49:37.214Z,145
2016-10-20T13:50:50.178Z,145
2016-10-20T13:52:02.548Z,145
2016-10-20T13:53:14.200Z,145
2016-10-20T13:54:27.240Z,145
2016-10-20T13:55:39.644Z,145
2016-10-20T13:56:52.120Z,150
2016-10-20T13:58:05.241Z,150
2016-10-20T13:59:17.705Z,150
2016-10-20T14:00:30.178Z,150
2016-10-20T14:01:42.066Z,150
2016-10-20T14:02:55.075Z,150
2016-10-20T14:04:07.580Z,150
2016-10-20T14:05:21.006Z,150
2016-10-20T14:06:33.449Z,150
2016-10-20T14:07:46.892Z,150
2016-10-20T14:08:58.877Z,150
2016-10-20T14:10:11.840Z,155
2016-10-20T14:11:23.773Z,155
2016-10-20T14:12:36.856Z,155
2016-10-20T14:13:50.042Z,160
2016-10-20T14:15:03.265Z,160
2016-10-20T14:16:16.203Z,160
2016-10-20T14:17:28.611Z,170
2016-10-20T14:18:41.093Z,165
2016-10-20T14:19:53.564Z,170
2016-10-20T14:21:06.012Z,175
2016-10-20T14:22:18.978Z,185
2016-10-20T14:23:31.981Z,195
2016-10-20T14:24:45.025Z,205
2016-10-20T14:25:56.591Z,210
2016-10-20T14:27:09.099Z,220
2016-10-20T14:28:21.047Z,220
2016-10-20T14:29:33.625Z,225
2016-10-20T14:30:46.123Z,225
2016-10-20T14:31:58.708Z,230
2016-10-20T14:33:11.755Z,235
2016-10-20T14:34:24.486Z,235
2016-10-20T14:35:37.717Z,240
2016-10-20T14:36:51.239Z,240
2016-10-20T14:38:15.982Z,245
2016-10-20T14:39:43.382Z,245
2016-10-20T14:41:11.688Z,240
2016-10-20T14:42:24.401Z,245
2016-10-20T14:43:36.422Z,250
2016-10-20T14:44:48.484Z,260
2016-10-20T14:46:02.180Z,280
2016-10-20T14:47:14.748Z,295
2016-10-20T14:48:26.718Z,300
2016-10-20T14:49:39.168Z,295
2016-10-20T14:50:51.680Z,295
2016-10-20T14:52:04.109Z,295
2016-10-20T14:53:17.832Z,295
2016-10-20T14:54:30.891Z,295
2016-10-20T14:55:43.915Z,295
2016-10-20T14:56:57.884Z,305
2016-10-20T14:58:09.869Z,305
2016-10-20T14:59:22.306Z,300
2016-10-20T15:00:34.828Z,295
2016-10-20T15:01:47.407Z,300
2016-10-20T15:03:04.372Z,310
2016-10-20T15:04:18.234Z,310
2016-10-20T15:05:31.651Z,320
2016-10-20T15:06:44.145Z,335
2016-10-20T15:07:56.607Z,335
2016-10-20T15:09:08.548Z,340
2016-10-20T15:10:20.555Z,345
2016-10-20T15:11:32.990Z,320
2016-10-20T15:12:46.322Z,310
2016-10-20T15:13:59.379Z,315
2016-10-20T15:15:12.469Z,320
2016-10-20T15:16:25.027Z,325
2016-10-20T15:17:37.485Z,330
2016-10-20T15:18:50.490Z,335
2016-10-20T15:20:02.531Z,335
2016-10-20T15:21:15.981Z,340
2016-10-20T15:22:27.423Z,345
2016-10-20T15:23:39.846Z,350
2016-10-20T15:24:52.364Z,350
2016-10-20T15:26:06.154Z,355
2016-10-20T15:27:19.425Z,355
2016-10-20T15:28:31.142Z,360
2016-10-20T15:29:44.194Z,365
2016-10-20T15:30:56.600Z,365
2016-10-20T15:52:58.340Z,355
2016-10-20T15:54:11.095Z,355
2016-10-20T15:55:23.025Z,355
2016-10-20T15:56:35.996Z,360
2016-10-20T15:57:49.084Z,360
2016-10-20T15:59:01.024Z,365
2016-10-20T16:00:13.019Z,365
2016-10-20T16:01:26.064Z,370
2016-10-20T16:02:39.090Z,370
2016-10-20T16:03:52.226Z,375
2016-10-20T16:05:05.259Z,380
2016-10-20T16:06:18.219Z,380
2016-10-20T16:07:31.499Z,385
2016-10-20T16:08:44.626Z,380
2016-10-20T16:09:57.609Z,380
2016-10-20T16:11:10.198Z,380
2016-10-20T16:12:22.687Z,380
2016-10-20T16:13:35.683Z,390
2016-10-20T16:14:49.294Z,385
2016-10-20T16:16:02.844Z,385
2016-10-20T16:17:16.343Z,390
2016-10-20T16:18:28.814Z,385
2016-10-20T16:19:42.458Z,390
2016-10-20T16:20:55.440Z,390
2016-10-20T16:22:07.992Z,390
2016-10-20T16:23:21.608Z,390
2016-10-20T16:24:35.096Z,390
2016-10-20T16:25:48.789Z,395
2016-10-20T16:27:00.220Z,395
2016-10-20T16:28:13.218Z,395
2016-10-20T16:29:25.719Z,395
2016-10-20T16:30:38.234Z,390
2016-10-20T16:31:50.210Z,390
2016-10-20T16:33:02.661Z,395
2016-10-20T16:34:15.665Z,395
2016-10-20T16:35:28.736Z,390
2016-10-20T16:36:41.419Z,390
2016-10-20T16:37:54.401Z,390
2016-10-20T16:39:06.974Z,395
2016-10-20T16:40:18.982Z,395
2016-10-20T16:41:32.569Z,405
2016-10-20T16:42:44.598Z,400
2016-10-20T16:43:58.075Z,395
2016-10-20T16:45:10.663Z,400
2016-10-20T16:46:24.285Z,405
2016-10-20T16:47:36.813Z,405
2016-10-20T16:48:49.321Z,405
2016-10-20T16:50:01.970Z,405
2016-10-20T16:51:15.058Z,405
2016-10-20T16:52:27.992Z,400
2016-10-20T16:53:41.139Z,405
2016-10-20T16:54:54.308Z,400
2016-10-20T16:56:06.203Z,400
2016-10-20T16:57:19.243Z,405
2016-10-20T16:58:31.862Z,395
2016-10-20T16:59:45.448Z,395
2016-10-20T17:00:58.477Z,395
2016-10-20T17:02:10.935Z,400
2016-10-20T17:03:24.134Z,400
2016-10-20T17:04:37.142Z,400
2016-10-20T17:05:49.651Z,405
2016-10-20T17:07:03.117Z,400
2016-10-20T17:08:16.183Z,405
2016-10-20T17:09:29.264Z,405
2016-10-20T17:10:42.268Z,400
2016-10-20T17:11:54.752Z,400
2016-10-20T17:13:07.739Z,400
2016-10-20T17:14:20.515Z,405
2016-10-20T17:15:34.078Z,410
2016-10-20T17:16:46.589Z,410
2016-10-20T17:17:59.548Z,405
2016-10-20T17:19:13.048Z,405
2016-10-20T17:20:26.231Z,405
2016-10-20T17:21:39.233Z,405
2016-10-20T17:22:51.786Z,400
2016-10-20T17:24:05.367Z,405
2016-10-20T17:25:19.241Z,410
2016-10-20T17:26:32.736Z,405
2016-10-20T17:27:45.756Z,395
2016-10-20T17:28:58.727Z,405
2016-10-20T17:30:11.243Z,405
2016-10-20T17:31:25.005Z,410
2016-10-20T17:32:37.578Z,395
2016-10-20T17:33:50.553Z,425
2016-10-20T17:35:03.005Z,430
2016-10-20T17:36:15.930Z,425
2016-10-20T17:37:28.335Z,425
2016-10-20T17:38:41.779Z,425
2016-10-20T17:39:54.702Z,410
2016-10-20T17:41:07.370Z,350
2016-10-20T17:42:19.917Z,280
2016-10-20T17:43:33.469Z,160
2016-10-20T17:44:46.550Z,325
2016-10-20T17:46:00.198Z,390
2016-10-20T17:47:13.193Z,375
2016-10-20T17:48:25.727Z,185
2016-10-20T17:49:38.702Z,115
2016-10-20T17:50:51.687Z,90
2016-10-20T17:52:04.118Z,80
2016-10-20T17:53:16.676Z,65